createdAt,value
2023-01-17T00:00:46.385Z,13.48
2023-01-17T00:06:07.036Z,13.10
2023-01-17T00:11:10.574Z,11.73
2023-01-17T00:16:15.436Z,12.05
2023-01-17T00:26:55.627Z,10.35
2023-01-17T00:31:59.190Z,10.83
2023-01-17T00:37:01.402Z,8.45
2023-01-17T00:42:03.720Z,11.55
2023-01-17T00:47:25.897Z,9.82
2023-01-17T00:52:46.464Z,9.02
2023-01-17T00:58:07.176Z,10.68
2023-01-17T01:03:30.629Z,9.18
2023-01-17T01:08:51.235Z,10.38
2023-01-17T01:14:13.604Z,9.45
2023-01-17T01:19:36.081Z,11.23
2023-01-17T01:24:56.795Z,11.10
2023-01-17T01:30:17.353Z,11.63
2023-01-17T01:35:22.534Z,10.20
2023-01-17T01:40:25.862Z,9.05
2023-01-17T01:45:31.609Z,11.02
2023-01-17T01:50:38.224Z,10.15
2023-01-17T01:55:45.478Z,8.35
2023-01-17T02:00:49.089Z,9.55
2023-01-17T02:05:54.083Z,9.35
2023-01-17T02:10:57.920Z,8.32
2023-01-17T02:16:06.990Z,11.17
2023-01-17T02:21:25.379Z,11.80
2023-01-17T02:26:57.008Z,10.32
2023-01-17T02:32:07.268Z,9.57
2023-01-17T02:37:16.085Z,12.48
2023-01-17T02:42:26.568Z,11.63
2023-01-17T02:47:33.248Z,11.65
2023-01-17T02:52:51.066Z,8.13
2023-01-17T02:58:07.145Z,12.27
2023-01-17T03:03:20.542Z,11.82
2023-01-17T03:08:24.998Z,12.70
2023-01-17T03:13:28.600Z,14.88
2023-01-17T03:18:33.496Z,14.48
2023-01-17T03:23:36.871Z,14.75
2023-01-17T03:28:40.290Z,13.35
2023-01-17T03:33:45.200Z,16.30
2023-01-17T03:38:48.694Z,16.77
2023-01-17T03:43:52.160Z,12.75
2023-01-17T03:48:56.959Z,15.20
2023-01-17T03:59:04.115Z,16.75
2023-01-17T04:04:09.143Z,15.87
2023-01-17T04:09:12.582Z,14.45
2023-01-17T04:14:16.057Z,11.73
2023-01-17T04:19:20.969Z,14.18
2023-01-17T04:24:24.532Z,16.00
2023-01-17T04:29:27.843Z,14.40
2023-01-17T04:34:32.617Z,14.02
2023-01-17T04:39:36.118Z,14.23
2023-01-17T04:44:39.432Z,15.82
2023-01-17T04:49:44.414Z,15.18
2023-01-17T04:54:49.556Z,14.45
2023-01-17T04:59:53.780Z,15.15
2023-01-17T05:04:58.819Z,14.18
2023-01-17T05:15:07.184Z,15.32
2023-01-17T05:20:13.578Z,15.25
2023-01-17T05:25:16.956Z,13.68
2023-01-17T05:30:21.153Z,15.38
2023-01-17T05:35:29.779Z,14.38
2023-01-17T05:40:34.641Z,15.68
2023-01-17T05:50:42.959Z,13.60
2023-01-17T06:00:50.269Z,15.57
2023-01-17T06:05:55.224Z,15.53
2023-01-17T06:16:04.395Z,16.17
2023-01-17T06:21:09.334Z,16.50
2023-01-17T06:31:15.900Z,14.68
2023-01-17T06:36:20.626Z,19.13
2023-01-17T06:41:25.989Z,19.58
2023-01-17T06:46:29.404Z,18.17
2023-01-17T06:51:34.307Z,18.15
2023-01-17T07:01:41.690Z,20.20
2023-01-17T07:06:46.512Z,21.15
2023-01-17T07:11:51.936Z,21.90
2023-01-17T07:16:55.719Z,25.08
2023-01-17T07:22:00.573Z,23.77
2023-01-17T07:32:09.068Z,22.48
2023-01-17T07:37:15.324Z,19.27
2023-01-17T07:42:18.841Z,21.95
2023-01-17T07:47:22.435Z,21.77
2023-01-17T07:52:27.353Z,19.00
2023-01-17T08:02:34.028Z,18.70
2023-01-17T08:07:38.922Z,18.65
2023-01-17T08:17:48.795Z,20.27
2023-01-17T08:22:56.836Z,17.85
2023-01-17T08:28:00.573Z,21.25
2023-01-17T08:33:04.147Z,19.58
2023-01-17T08:38:10.151Z,14.98
2023-01-17T08:43:13.604Z,17.33
2023-01-17T08:48:17.277Z,14.18
2023-01-17T08:53:23.511Z,20.15
2023-01-17T08:58:30.465Z,17.48
2023-01-17T09:03:35.291Z,17.73
2023-01-17T09:08:40.823Z,14.85
2023-01-17T09:13:44.728Z,18.33
2023-01-17T09:18:48.203Z,19.90
2023-01-17T09:23:53.212Z,18.13
2023-01-17T09:28:57.171Z,19.10
2023-01-17T09:34:01.101Z,17.63
2023-01-17T09:39:06.277Z,15.07
2023-01-17T09:44:24.847Z,20.20
2023-01-17T09:49:36.747Z,19.90
2023-01-17T09:54:43.995Z,16.10
2023-01-17T10:00:03.237Z,16.73
2023-01-17T10:05:30.019Z,16.83
2023-01-17T10:10:42.514Z,18.10
2023-01-17T10:16:00.899Z,21.52
2023-01-17T10:21:11.128Z,16.27
2023-01-17T10:26:19.964Z,14.98
2023-01-17T10:31:25.894Z,19.15
2023-01-17T10:36:34.732Z,20.67
2023-01-17T10:41:43.769Z,19.85
2023-01-17T10:46:54.281Z,18.27
2023-01-17T10:52:20.413Z,16.85
2023-01-17T10:57:28.392Z,18.75
2023-01-17T11:02:35.609Z,17.65
2023-01-17T11:07:40.162Z,16.10
2023-01-17T11:12:48.355Z,20.00
2023-01-17T11:17:54.348Z,13.20
2023-01-17T11:23:14.119Z,18.48
2023-01-17T11:28:26.111Z,18.52
2023-01-17T11:33:45.346Z,17.30
2023-01-17T11:39:00.239Z,17.73
2023-01-17T11:44:25.044Z,17.02
2023-01-17T11:49:30.883Z,18.08
2023-01-17T11:54:39.814Z,18.33
2023-01-17T11:59:47.943Z,20.30
2023-01-17T12:05:04.136Z,18.70
2023-01-17T12:10:14.764Z,18.30
2023-01-17T12:15:35.345Z,18.98
2023-01-17T12:20:47.169Z,18.88
2023-01-17T12:26:04.532Z,18.30
2023-01-17T12:31:21.844Z,19.27
2023-01-17T12:36:40.268Z,16.98
2023-01-17T12:41:57.570Z,19.30
2023-01-17T12:47:05.050Z,18.77
2023-01-17T12:52:15.172Z,15.15
2023-01-17T12:57:23.299Z,17.27
2023-01-17T13:02:36.564Z,15.43
2023-01-17T13:07:47.543Z,18.25
2023-01-17T13:12:52.201Z,17.90
2023-01-17T13:18:04.561Z,17.23
2023-01-17T13:23:14.008Z,17.08
2023-01-17T13:28:31.525Z,17.55
2023-01-17T13:33:56.627Z,18.58
2023-01-17T13:39:20.447Z,17.98
2023-01-17T13:44:30.161Z,16.67
2023-01-17T13:49:37.400Z,17.13
2023-01-17T13:54:49.185Z,15.63
2023-01-17T13:59:53.109Z,15.90
2023-01-17T14:05:15.335Z,16.90
2023-01-17T14:10:37.947Z,17.45
2023-01-17T14:15:51.011Z,16.75
2023-01-17T14:21:12.876Z,17.48
2023-01-17T14:26:42.679Z,14.73
2023-01-17T14:31:46.813Z,14.05
2023-01-17T14:36:51.581Z,13.97
2023-01-17T14:41:54.984Z,14.40
2023-01-17T14:46:58.365Z,15.40
2023-01-17T14:52:04.792Z,14.70
2023-01-17T14:57:27.016Z,15.45
2023-01-17T15:02:30.558Z,13.55
2023-01-17T15:07:38.197Z,14.18
2023-01-17T15:12:46.698Z,14.00
2023-01-17T15:17:53.811Z,15.10
2023-01-17T15:22:58.653Z,14.15
2023-01-17T15:28:04.741Z,12.90
2023-01-17T15:33:15.130Z,12.65
2023-01-17T15:38:19.963Z,12.68
2023-01-17T15:43:35.995Z,13.73
2023-01-17T15:48:43.526Z,11.55
2023-01-17T15:53:48.403Z,14.27
2023-01-17T16:03:55.721Z,13.77
2023-01-17T16:09:00.616Z,15.75
2023-01-17T16:14:07.635Z,14.02
2023-01-17T16:19:11.331Z,14.85
2023-01-17T16:24:16.840Z,14.70
2023-01-17T16:29:20.148Z,14.20
2023-01-17T16:34:24.090Z,15.52
2023-01-17T16:39:29.551Z,15.87
2023-01-17T16:44:33.611Z,11.63
2023-01-17T16:49:37.118Z,13.57
2023-01-17T16:54:41.987Z,13.15
2023-01-17T16:59:50.867Z,14.07
2023-01-17T17:04:54.568Z,13.25
2023-01-17T17:10:02.576Z,14.68
2023-01-17T17:15:07.956Z,15.32
2023-01-17T17:20:13.772Z,14.25
2023-01-17T17:25:19.421Z,13.85
2023-01-17T17:30:22.790Z,15.00
2023-01-17T17:35:26.289Z,17.73
2023-01-17T17:40:31.137Z,17.27
2023-01-17T17:45:34.456Z,16.00
2023-01-17T17:50:40.287Z,18.70
2023-01-17T17:55:45.153Z,18.67
2023-01-17T18:05:51.828Z,16.65
2023-01-17T18:11:03.585Z,18.10
2023-01-17T18:16:08.921Z,19.75
2023-01-17T18:21:14.271Z,19.30
2023-01-17T18:26:20.994Z,19.70
2023-01-17T18:31:27.700Z,21.60
2023-01-17T18:36:31.174Z,20.05
2023-01-17T18:41:36.130Z,21.73
2023-01-17T18:51:46.794Z,20.23
2023-01-17T18:56:52.773Z,19.13
2023-01-17T19:01:59.048Z,21.42
2023-01-17T19:07:02.577Z,22.75
2023-01-17T19:12:07.747Z,22.15
2023-01-17T19:17:11.048Z,22.23
2023-01-17T19:22:14.600Z,22.63
2023-01-17T19:27:19.509Z,23.13
2023-01-17T19:37:27.173Z,17.35
2023-01-17T19:42:32.025Z,22.30
2023-01-17T19:47:35.483Z,20.50
2023-01-17T19:52:42.413Z,23.23
2023-01-17T19:57:47.253Z,23.55
2023-01-17T20:07:53.791Z,23.17
2023-01-17T20:13:00.401Z,21.98
2023-01-17T20:18:04.103Z,21.63
2023-01-17T20:23:10.530Z,18.55
2023-01-17T20:28:15.247Z,19.45
2023-01-17T20:33:20.730Z,20.80
2023-01-17T20:38:27.545Z,20.65
2023-01-17T20:43:32.385Z,21.25
2023-01-17T20:48:35.786Z,20.08
2023-01-17T20:53:43.598Z,16.83
2023-01-17T20:58:49.584Z,15.60
2023-01-17T21:03:54.900Z,20.90
2023-01-17T21:08:59.930Z,18.88
2023-01-17T21:14:05.844Z,18.40
2023-01-17T21:19:15.865Z,20.70
2023-01-17T21:24:20.371Z,21.80
2023-01-17T21:29:29.607Z,20.08
2023-01-17T21:34:34.812Z,22.75
2023-01-17T21:39:38.800Z,19.02
2023-01-17T21:44:45.479Z,18.47
2023-01-17T21:49:48.822Z,19.45
2023-01-17T21:55:09.606Z,19.58
2023-01-17T22:00:16.121Z,19.15
2023-01-17T22:05:19.757Z,17.73
2023-01-17T22:10:23.337Z,16.92
2023-01-17T22:15:28.088Z,16.90
2023-01-17T22:20:34.196Z,17.75
2023-01-17T22:25:38.031Z,18.23
2023-01-17T22:30:42.905Z,10.18
2023-01-17T22:40:49.323Z,18.90
2023-01-17T22:46:00.263Z,17.35
2023-01-17T22:51:04.857Z,19.05
2023-01-17T22:56:10.184Z,19.98
2023-01-17T23:01:17.418Z,18.63
2023-01-17T23:06:23.033Z,16.60
2023-01-17T23:11:40.850Z,20.35
2023-01-17T23:17:04.755Z,18.15
2023-01-17T23:22:22.379Z,19.58
2023-01-17T23:27:45.307Z,19.30
2023-01-17T23:32:51.665Z,16.73
2023-01-17T23:38:12.308Z,16.13
2023-01-17T23:43:24.683Z,20.23
2023-01-17T23:48:29.947Z,19.63
2023-01-17T23:53:33.389Z,20.70
2023-01-17T23:58:36.824Z,20.25
